sensor_id;sensor_type;location;lat;lon;timestamp;temperature;humidity
2851;DHT22;1433;49.976;8.342;2023-11-22T00:01:41;5.30;99.90
2851;DHT22;1433;49.976;8.342;2023-11-22T00:04:08;5.30;99.90
2851;DHT22;1433;49.976;8.342;2023-11-22T00:06:34;5.30;99.90
2851;DHT22;1433;49.976;8.342;2023-11-22T00:09:00;5.30;99.90
2851;DHT22;1433;49.976;8.342;2023-11-22T00:11:26;5.30;99.90
2851;DHT22;1433;49.976;8.342;2023-11-22T00:13:53;5.30;99.90
2851;DHT22;1433;49.976;8.342;2023-11-22T00:16:21;5.20;99.90
2851;DHT22;1433;49.976;8.342;2023-11-22T00:18:47;5.30;99.90
2851;DHT22;1433;49.976;8.342;2023-11-22T00:21:13;5.30;99.90
2851;DHT22;1433;49.976;8.342;2023-11-22T00:23:39;5.30;99.90
2851;DHT22;1433;49.976;8.342;2023-11-22T00:26:05;5.30;99.90
2851;DHT22;1433;49.976;8.342;2023-11-22T00:28:32;5.30;99.90
2851;DHT22;1433;49.976;8.342;2023-11-22T00:30:58;5.40;99.90
2851;DHT22;1433;49.976;8.342;2023-11-22T00:33:24;5.30;99.90
2851;DHT22;1433;49.976;8.342;2023-11-22T00:35:51;5.30;99.90
2851;DHT22;1433;49.976;8.342;2023-11-22T00:38:19;5.30;99.90
2851;DHT22;1433;49.976;8.342;2023-11-22T00:40:46;5.20;99.90
2851;DHT22;1433;49.976;8.342;2023-11-22T00:43:12;5.20;99.90
2851;DHT22;1433;49.976;8.342;2023-11-22T00:45:38;5.10;99.90
2851;DHT22;1433;49.976;8.342;2023-11-22T00:48:04;5.00;99.90
2851;DHT22;1433;49.976;8.342;2023-11-22T00:50:30;4.90;99.90
2851;DHT22;1433;49.976;8.342;2023-11-22T00:52:56;4.80;99.90
2851;DHT22;1433;49.976;8.342;2023-11-22T00:55:23;4.70;99.90
2851;DHT22;1433;49.976;8.342;2023-11-22T00:57:49;4.60;99.90
2851;DHT22;1433;49.976;8.342;2023-11-22T01:00:15;4.50;99.90
2851;DHT22;1433;49.976;8.342;2023-11-22T01:02:42;4.50;99.90
2851;DHT22;1433;49.976;8.342;2023-11-22T01:05:08;4.40;99.90
2851;DHT22;1433;49.976;8.342;2023-11-22T01:07:59;4.30;99.90
2851;DHT22;1433;49.976;8.342;2023-11-22T01:10:26;4.30;99.90
2851;DHT22;1433;49.976;8.342;2023-11-22T01:12:52;4.20;99.90
2851;DHT22;1433;49.976;8.342;2023-11-22T01:15:18;4.10;99.90
2851;DHT22;1433;49.976;8.342;2023-11-22T01:17:45;4.10;99.90
2851;DHT22;1433;49.976;8.342;2023-11-22T01:20:11;4.10;99.90
2851;DHT22;1433;49.976;8.342;2023-11-22T01:22:37;4.10;99.90
2851;DHT22;1433;49.976;8.342;2023-11-22T01:25:05;4.00;99.90
2851;DHT22;1433;49.976;8.342;2023-11-22T01:27:31;4.00;99.90
2851;DHT22;1433;49.976;8.342;2023-11-22T01:29:57;3.90;99.90
2851;DHT22;1433;49.976;8.342;2023-11-22T01:32:23;3.80;99.90
2851;DHT22;1433;49.976;8.342;2023-11-22T01:34:50;3.80;99.90
2851;DHT22;1433;49.976;8.342;2023-11-22T01:37:16;3.80;99.90
2851;DHT22;1433;49.976;8.342;2023-11-22T01:39:42;3.80;99.90
2851;DHT22;1433;49.976;8.342;2023-11-22T01:42:08;3.70;99.90
2851;DHT22;1433;49.976;8.342;2023-11-22T01:44:35;3.70;99.90
2851;DHT22;1433;49.976;8.342;2023-11-22T01:47:01;3.60;99.90
2851;DHT22;1433;49.976;8.342;2023-11-22T01:49:29;3.50;99.90
2851;DHT22;1433;49.976;8.342;2023-11-22T01:51:55;3.50;99.90
2851;DHT22;1433;49.976;8.342;2023-11-22T01:54:22;3.50;99.90
2851;DHT22;1433;49.976;8.342;2023-11-22T01:56:49;3.40;99.90
2851;DHT22;1433;49.976;8.342;2023-11-22T01:59:16;3.40;99.90
2851;DHT22;1433;49.976;8.342;2023-11-22T02:01:43;3.40;99.90
2851;DHT22;1433;49.976;8.342;2023-11-22T02:04:14;3.30;99.90
2851;DHT22;1433;49.976;8.342;2023-11-22T02:06:40;3.30;99.90
2851;DHT22;1433;49.976;8.342;2023-11-22T02:09:06;3.20;99.90
2851;DHT22;1433;49.976;8.342;2023-11-22T02:11:34;3.20;99.90
2851;DHT22;1433;49.976;8.342;2023-11-22T02:14:01;3.20;99.90
2851;DHT22;1433;49.976;8.342;2023-11-22T02:16:27;3.20;99.90
2851;DHT22;1433;49.976;8.342;2023-11-22T02:18:53;3.10;99.90
2851;DHT22;1433;49.976;8.342;2023-11-22T02:21:19;3.10;99.90
2851;DHT22;1433;49.976;8.342;2023-11-22T02:23:47;3.10;99.90
2851;DHT22;1433;49.976;8.342;2023-11-22T02:26:13;3.10;99.90
2851;DHT22;1433;49.976;8.342;2023-11-22T02:28:41;3.10;99.90
2851;DHT22;1433;49.976;8.342;2023-11-22T02:31:07;3.00;99.90
2851;DHT22;1433;49.976;8.342;2023-11-22T02:33:34;3.00;99.90
2851;DHT22;1433;49.976;8.342;2023-11-22T02:36:01;2.90;99.90
2851;DHT22;1433;49.976;8.342;2023-11-22T02:38:30;3.00;99.90
2851;DHT22;1433;49.976;8.342;2023-11-22T02:40:56;2.90;99.90
2851;DHT22;1433;49.976;8.342;2023-11-22T02:43:24;2.90;99.90
2851;DHT22;1433;49.976;8.342;2023-11-22T02:45:50;2.80;99.90
2851;DHT22;1433;49.976;8.342;2023-11-22T02:48:17;2.90;99.90
2851;DHT22;1433;49.976;8.342;2023-11-22T02:50:44;2.90;99.90
2851;DHT22;1433;49.976;8.342;2023-11-22T02:53:10;2.90;99.90
2851;DHT22;1433;49.976;8.342;2023-11-22T02:55:36;2.80;99.90
2851;DHT22;1433;49.976;8.342;2023-11-22T02:58:03;2.80;99.90
2851;DHT22;1433;49.976;8.342;2023-11-22T03:00:29;2.90;99.90
2851;DHT22;1433;49.976;8.342;2023-11-22T03:02:55;3.00;99.90
2851;DHT22;1433;49.976;8.342;2023-11-22T03:05:22;2.90;99.90
2851;DHT22;1433;49.976;8.342;2023-11-22T03:07:48;2.90;99.90
2851;DHT22;1433;49.976;8.342;2023-11-22T03:10:17;2.90;99.90
2851;DHT22;1433;49.976;8.342;2023-11-22T03:12:44;2.80;99.90
2851;DHT22;1433;49.976;8.342;2023-11-22T03:15:10;2.70;99.90
2851;DHT22;1433;49.976;8.342;2023-11-22T03:17:37;2.70;99.90
2851;DHT22;1433;49.976;8.342;2023-11-22T03:20:05;2.70;99.90
2851;DHT22;1433;49.976;8.342;2023-11-22T03:22:33;2.70;99.90
2851;DHT22;1433;49.976;8.342;2023-11-22T03:25:02;2.70;99.90
2851;DHT22;1433;49.976;8.342;2023-11-22T03:27:28;2.70;99.90
2851;DHT22;1433;49.976;8.342;2023-11-22T03:29:54;2.60;99.90
2851;DHT22;1433;49.976;8.342;2023-11-22T03:32:22;2.70;99.90
2851;DHT22;1433;49.976;8.342;2023-11-22T03:34:48;2.70;99.90
2851;DHT22;1433;49.976;8.342;2023-11-22T03:37:14;2.70;99.90
2851;DHT22;1433;49.976;8.342;2023-11-22T03:39:40;2.70;99.90
2851;DHT22;1433;49.976;8.342;2023-11-22T03:42:09;2.70;99.90
2851;DHT22;1433;49.976;8.342;2023-11-22T03:44:36;2.60;99.90
2851;DHT22;1433;49.976;8.342;2023-11-22T03:47:02;2.60;99.90
2851;DHT22;1433;49.976;8.342;2023-11-22T03:49:29;2.40;99.90
2851;DHT22;1433;49.976;8.342;2023-11-22T03:51:55;2.40;99.90
2851;DHT22;1433;49.976;8.342;2023-11-22T03:54:21;2.50;99.90
2851;DHT22;1433;49.976;8.342;2023-11-22T03:56:48;2.50;99.90
2851;DHT22;1433;49.976;8.342;2023-11-22T03:59:14;2.60;99.90
2851;DHT22;1433;49.976;8.342;2023-11-22T04:01:40;2.60;99.90
2851;DHT22;1433;49.976;8.342;2023-11-22T04:04:06;2.60;99.90
2851;DHT22;1433;49.976;8.342;2023-11-22T04:06:34;2.50;99.90
2851;DHT22;1433;49.976;8.342;2023-11-22T04:09:00;2.50;99.90
2851;DHT22;1433;49.976;8.342;2023-11-22T04:11:28;2.40;99.90
2851;DHT22;1433;49.976;8.342;2023-11-22T04:13:55;2.30;99.90
2851;DHT22;1433;49.976;8.342;2023-11-22T04:16:21;2.40;99.90
2851;DHT22;1433;49.976;8.342;2023-11-22T04:18:47;2.30;99.90
2851;DHT22;1433;49.976;8.342;2023-11-22T04:21:14;2.30;99.90
2851;DHT22;1433;49.976;8.342;2023-11-22T04:23:40;2.20;99.90
2851;DHT22;1433;49.976;8.342;2023-11-22T04:26:06;2.10;99.90
2851;DHT22;1433;49.976;8.342;2023-11-22T04:28:33;2.00;99.90
2851;DHT22;1433;49.976;8.342;2023-11-22T04:31:00;2.00;99.90
2851;DHT22;1433;49.976;8.342;2023-11-22T04:33:26;1.90;99.90
2851;DHT22;1433;49.976;8.342;2023-11-22T04:35:54;1.80;99.90
2851;DHT22;1433;49.976;8.342;2023-11-22T04:38:21;1.80;99.90
2851;DHT22;1433;49.976;8.342;2023-11-22T04:40:47;1.70;99.90
2851;DHT22;1433;49.976;8.342;2023-11-22T04:43:13;1.70;99.90
2851;DHT22;1433;49.976;8.342;2023-11-22T04:45:39;1.70;99.90
2851;DHT22;1433;49.976;8.342;2023-11-22T04:48:05;1.70;99.90
2851;DHT22;1433;49.976;8.342;2023-11-22T04:50:34;1.60;99.90
2851;DHT22;1433;49.976;8.342;2023-11-22T04:53:01;1.60;99.90
2851;DHT22;1433;49.976;8.342;2023-11-22T04:55:30;1.60;99.90
2851;DHT22;1433;49.976;8.342;2023-11-22T04:57:56;1.70;99.90
2851;DHT22;1433;49.976;8.342;2023-11-22T05:00:22;1.70;99.90
2851;DHT22;1433;49.976;8.342;2023-11-22T05:02:48;1.70;99.90
2851;DHT22;1433;49.976;8.342;2023-11-22T05:05:14;1.60;99.90
2851;DHT22;1433;49.976;8.342;2023-11-22T05:07:41;1.50;99.90
2851;DHT22;1433;49.976;8.342;2023-11-22T05:10:08;1.50;99.90
2851;DHT22;1433;49.976;8.342;2023-11-22T05:12:35;1.40;99.90
2851;DHT22;1433;49.976;8.342;2023-11-22T05:15:02;1.40;99.90
2851;DHT22;1433;49.976;8.342;2023-11-22T05:17:28;1.30;99.90
2851;DHT22;1433;49.976;8.342;2023-11-22T05:19:55;1.30;99.90
2851;DHT22;1433;49.976;8.342;2023-11-22T05:22:21;1.20;99.90
2851;DHT22;1433;49.976;8.342;2023-11-22T05:24:49;1.10;99.90
2851;DHT22;1433;49.976;8.342;2023-11-22T05:27:15;1.00;99.90
2851;DHT22;1433;49.976;8.342;2023-11-22T05:29:41;1.00;99.90
2851;DHT22;1433;49.976;8.342;2023-11-22T05:32:08;0.90;99.90
2851;DHT22;1433;49.976;8.342;2023-11-22T05:34:35;0.90;99.90
2851;DHT22;1433;49.976;8.342;2023-11-22T05:37:01;0.80;99.90
2851;DHT22;1433;49.976;8.342;2023-11-22T05:39:27;0.90;99.90
2851;DHT22;1433;49.976;8.342;2023-11-22T05:41:53;0.90;99.90
2851;DHT22;1433;49.976;8.342;2023-11-22T05:44:19;1.00;99.90
2851;DHT22;1433;49.976;8.342;2023-11-22T05:46:45;1.10;99.90
2851;DHT22;1433;49.976;8.342;2023-11-22T05:49:11;1.10;99.90
2851;DHT22;1433;49.976;8.342;2023-11-22T05:51:38;1.10;99.90
2851;DHT22;1433;49.976;8.342;2023-11-22T05:54:04;1.10;99.90
2851;DHT22;1433;49.976;8.342;2023-11-22T05:56:30;1.10;99.90
2851;DHT22;1433;49.976;8.342;2023-11-22T05:58:57;1.20;99.90
2851;DHT22;1433;49.976;8.342;2023-11-22T06:01:23;1.10;99.90
2851;DHT22;1433;49.976;8.342;2023-11-22T06:03:49;1.10;99.90
2851;DHT22;1433;49.976;8.342;2023-11-22T06:06:16;1.10;99.90
2851;DHT22;1433;49.976;8.342;2023-11-22T06:08:43;1.10;99.90
2851;DHT22;1433;49.976;8.342;2023-11-22T06:11:09;1.10;99.90
2851;DHT22;1433;49.976;8.342;2023-11-22T06:13:35;1.10;99.90
2851;DHT22;1433;49.976;8.342;2023-11-22T06:16:01;1.10;99.90
2851;DHT22;1433;49.976;8.342;2023-11-22T06:18:27;1.20;99.90
2851;DHT22;1433;49.976;8.342;2023-11-22T06:20:58;1.30;99.90
2851;DHT22;1433;49.976;8.342;2023-11-22T06:23:24;1.40;99.90
2851;DHT22;1433;49.976;8.342;2023-11-22T06:25:50;1.40;99.90
2851;DHT22;1433;49.976;8.342;2023-11-22T06:28:17;1.40;99.90
2851;DHT22;1433;49.976;8.342;2023-11-22T06:30:44;1.40;99.90
2851;DHT22;1433;49.976;8.342;2023-11-22T06:33:10;1.40;99.90
2851;DHT22;1433;49.976;8.342;2023-11-22T06:35:36;1.40;99.90
2851;DHT22;1433;49.976;8.342;2023-11-22T06:38:03;1.40;99.90
2851;DHT22;1433;49.976;8.342;2023-11-22T06:40:29;1.40;99.90
2851;DHT22;1433;49.976;8.342;2023-11-22T06:42:57;1.30;99.90
2851;DHT22;1433;49.976;8.342;2023-11-22T06:45:24;1.30;99.90
2851;DHT22;1433;49.976;8.342;2023-11-22T06:47:50;1.30;99.90
2851;DHT22;1433;49.976;8.342;2023-11-22T06:50:16;1.20;99.90
2851;DHT22;1433;49.976;8.342;2023-11-22T06:52:43;1.20;99.90
2851;DHT22;1433;49.976;8.342;2023-11-22T06:55:09;1.20;99.90
2851;DHT22;1433;49.976;8.342;2023-11-22T06:57:37;1.20;99.90
2851;DHT22;1433;49.976;8.342;2023-11-22T07:00:04;1.20;99.90
2851;DHT22;1433;49.976;8.342;2023-11-22T07:02:32;1.20;99.90
2851;DHT22;1433;49.976;8.342;2023-11-22T07:04:58;1.20;99.90
2851;DHT22;1433;49.976;8.342;2023-11-22T07:07:25;1.20;99.90
2851;DHT22;1433;49.976;8.342;2023-11-22T07:09:51;1.20;99.90
2851;DHT22;1433;49.976;8.342;2023-11-22T07:12:18;1.20;99.90
2851;DHT22;1433;49.976;8.342;2023-11-22T07:14:45;1.30;99.90
2851;DHT22;1433;49.976;8.342;2023-11-22T07:17:11;1.30;99.90
2851;DHT22;1433;49.976;8.342;2023-11-22T07:19:37;1.30;99.90
2851;DHT22;1433;49.976;8.342;2023-11-22T07:22:04;1.30;99.90
2851;DHT22;1433;49.976;8.342;2023-11-22T07:24:32;1.30;99.90
2851;DHT22;1433;49.976;8.342;2023-11-22T07:27:00;1.30;99.90
2851;DHT22;1433;49.976;8.342;2023-11-22T07:29:26;1.30;99.90
2851;DHT22;1433;49.976;8.342;2023-11-22T07:31:55;1.30;99.90
2851;DHT22;1433;49.976;8.342;2023-11-22T07:34:22;1.30;99.90
2851;DHT22;1433;49.976;8.342;2023-11-22T07:36:49;1.30;99.90
2851;DHT22;1433;49.976;8.342;2023-11-22T07:39:16;1.40;99.90
2851;DHT22;1433;49.976;8.342;2023-11-22T07:41:44;1.40;99.90
2851;DHT22;1433;49.976;8.342;2023-11-22T07:44:11;1.40;99.90
2851;DHT22;1433;49.976;8.342;2023-11-22T07:46:37;1.50;99.90
2851;DHT22;1433;49.976;8.342;2023-11-22T07:49:03;1.50;99.90
2851;DHT22;1433;49.976;8.342;2023-11-22T07:51:29;1.50;99.90
2851;DHT22;1433;49.976;8.342;2023-11-22T07:53:56;1.50;99.90
2851;DHT22;1433;49.976;8.342;2023-11-22T07:56:22;1.60;99.90
2851;DHT22;1433;49.976;8.342;2023-11-22T07:58:48;1.60;99.90
2851;DHT22;1433;49.976;8.342;2023-11-22T08:01:15;1.60;99.90
2851;DHT22;1433;49.976;8.342;2023-11-22T08:03:41;1.60;99.90
2851;DHT22;1433;49.976;8.342;2023-11-22T08:06:11;1.60;99.90
2851;DHT22;1433;49.976;8.342;2023-11-22T08:08:39;1.60;99.90
2851;DHT22;1433;49.976;8.342;2023-11-22T08:11:06;1.60;99.90
2851;DHT22;1433;49.976;8.342;2023-11-22T08:13:34;1.70;99.90
2851;DHT22;1433;49.976;8.342;2023-11-22T08:16:00;1.70;99.90
2851;DHT22;1433;49.976;8.342;2023-11-22T08:18:26;1.70;99.90
2851;DHT22;1433;49.976;8.342;2023-11-22T08:20:53;1.70;99.90
2851;DHT22;1433;49.976;8.342;2023-11-22T08:23:19;1.70;99.90
2851;DHT22;1433;49.976;8.342;2023-11-22T08:25:45;1.70;99.90
2851;DHT22;1433;49.976;8.342;2023-11-22T08:28:11;1.70;99.90
2851;DHT22;1433;49.976;8.342;2023-11-22T08:30:37;1.70;99.90
2851;DHT22;1433;49.976;8.342;2023-11-22T08:33:03;1.60;99.90
2851;DHT22;1433;49.976;8.342;2023-11-22T08:35:30;1.70;99.90
2851;DHT22;1433;49.976;8.342;2023-11-22T08:37:56;1.70;99.90
2851;DHT22;1433;49.976;8.342;2023-11-22T08:40:23;1.60;99.90
2851;DHT22;1433;49.976;8.342;2023-11-22T08:42:49;1.70;99.90
2851;DHT22;1433;49.976;8.342;2023-11-22T08:45:16;1.70;99.90
2851;DHT22;1433;49.976;8.342;2023-11-22T08:47:42;1.80;99.90
2851;DHT22;1433;49.976;8.342;2023-11-22T08:50:09;1.80;99.90
2851;DHT22;1433;49.976;8.342;2023-11-22T08:52:39;1.90;99.90
2851;DHT22;1433;49.976;8.342;2023-11-22T08:55:08;2.00;99.90
2851;DHT22;1433;49.976;8.342;2023-11-22T08:57:38;2.00;99.90
2851;DHT22;1433;49.976;8.342;2023-11-22T09:00:05;2.10;99.90
2851;DHT22;1433;49.976;8.342;2023-11-22T09:02:33;2.20;99.90
2851;DHT22;1433;49.976;8.342;2023-11-22T09:05:00;2.20;99.90
2851;DHT22;1433;49.976;8.342;2023-11-22T09:07:26;2.20;99.90
2851;DHT22;1433;49.976;8.342;2023-11-22T09:09:54;2.30;99.90
2851;DHT22;1433;49.976;8.342;2023-11-22T09:12:20;2.40;99.90
2851;DHT22;1433;49.976;8.342;2023-11-22T09:14:46;2.40;99.90
2851;DHT22;1433;49.976;8.342;2023-11-22T09:17:13;2.50;99.90
2851;DHT22;1433;49.976;8.342;2023-11-22T09:19:39;2.60;99.90
2851;DHT22;1433;49.976;8.342;2023-11-22T09:22:05;2.70;99.90
2851;DHT22;1433;49.976;8.342;2023-11-22T09:24:32;2.70;99.90
2851;DHT22;1433;49.976;8.342;2023-11-22T09:26:59;2.70;99.90
2851;DHT22;1433;49.976;8.342;2023-11-22T09:29:26;2.80;99.90
2851;DHT22;1433;49.976;8.342;2023-11-22T09:31:52;2.80;99.90
2851;DHT22;1433;49.976;8.342;2023-11-22T09:34:18;2.80;99.90
2851;DHT22;1433;49.976;8.342;2023-11-22T09:36:45;2.80;99.90
2851;DHT22;1433;49.976;8.342;2023-11-22T09:39:11;2.70;99.90
2851;DHT22;1433;49.976;8.342;2023-11-22T09:41:38;2.70;99.90
2851;DHT22;1433;49.976;8.342;2023-11-22T09:44:05;2.70;99.90
2851;DHT22;1433;49.976;8.342;2023-11-22T09:46:32;2.70;99.90
2851;DHT22;1433;49.976;8.342;2023-11-22T09:49:02;2.80;99.90
2851;DHT22;1433;49.976;8.342;2023-11-22T09:51:32;2.80;99.90
2851;DHT22;1433;49.976;8.342;2023-11-22T09:53:59;2.90;99.90
2851;DHT22;1433;49.976;8.342;2023-11-22T09:56:27;2.90;99.90
2851;DHT22;1433;49.976;8.342;2023-11-22T09:58:55;3.10;99.90
2851;DHT22;1433;49.976;8.342;2023-11-22T10:01:23;3.20;99.90
2851;DHT22;1433;49.976;8.342;2023-11-22T10:03:50;3.20;99.90
2851;DHT22;1433;49.976;8.342;2023-11-22T10:06:17;3.30;99.90
2851;DHT22;1433;49.976;8.342;2023-11-22T10:08:44;3.30;99.90
2851;DHT22;1433;49.976;8.342;2023-11-22T10:11:15;3.30;99.90
2851;DHT22;1433;49.976;8.342;2023-11-22T10:13:47;3.40;99.90
2851;DHT22;1433;49.976;8.342;2023-11-22T10:16:13;3.50;99.90
2851;DHT22;1433;49.976;8.342;2023-11-22T10:18:44;3.70;99.90
2851;DHT22;1433;49.976;8.342;2023-11-22T10:23:57;3.80;99.90
2851;DHT22;1433;49.976;8.342;2023-11-22T10:26:25;3.80;99.90
2851;DHT22;1433;49.976;8.342;2023-11-22T10:28:53;3.90;99.90
2851;DHT22;1433;49.976;8.342;2023-11-22T10:31:21;3.90;99.90
2851;DHT22;1433;49.976;8.342;2023-11-22T10:33:50;3.90;99.90
2851;DHT22;1433;49.976;8.342;2023-11-22T10:36:17;4.00;99.90
2851;DHT22;1433;49.976;8.342;2023-11-22T10:38:47;4.10;99.90
2851;DHT22;1433;49.976;8.342;2023-11-22T10:41:14;4.30;99.90
2851;DHT22;1433;49.976;8.342;2023-11-22T10:43:40;4.40;99.90
2851;DHT22;1433;49.976;8.342;2023-11-22T10:46:08;4.30;99.90
2851;DHT22;1433;49.976;8.342;2023-11-22T10:48:38;4.30;99.90
2851;DHT22;1433;49.976;8.342;2023-11-22T10:51:05;4.10;99.90
2851;DHT22;1433;49.976;8.342;2023-11-22T10:53:33;4.30;99.90
2851;DHT22;1433;49.976;8.342;2023-11-22T10:56:11;4.30;99.90
2851;DHT22;1433;49.976;8.342;2023-11-22T10:58:33;4.10;99.90
2851;DHT22;1433;49.976;8.342;2023-11-22T11:01:02;4.00;99.90
2851;DHT22;1433;49.976;8.342;2023-11-22T11:04:15;4.00;99.90
2851;DHT22;1433;49.976;8.342;2023-11-22T11:06:37;4.20;99.90
2851;DHT22;1433;49.976;8.342;2023-11-22T11:09:05;4.50;99.90
2851;DHT22;1433;49.976;8.342;2023-11-22T11:11:33;4.90;99.90
2851;DHT22;1433;49.976;8.342;2023-11-22T11:14:00;5.80;99.90
2851;DHT22;1433;49.976;8.342;2023-11-22T11:16:29;6.70;99.90
2851;DHT22;1433;49.976;8.342;2023-11-22T11:18:57;7.50;99.90
2851;DHT22;1433;49.976;8.342;2023-11-22T11:21:25;7.60;99.90
2851;DHT22;1433;49.976;8.342;2023-11-22T11:23:52;7.80;99.90
2851;DHT22;1433;49.976;8.342;2023-11-22T11:26:21;7.30;99.90
2851;DHT22;1433;49.976;8.342;2023-11-22T11:28:49;7.10;99.90
2851;DHT22;1433;49.976;8.342;2023-11-22T11:31:16;7.20;99.90
2851;DHT22;1433;49.976;8.342;2023-11-22T11:33:54;7.40;99.90
2851;DHT22;1433;49.976;8.342;2023-11-22T11:36:27;7.60;99.90
2851;DHT22;1433;49.976;8.342;2023-11-22T11:38:55;7.30;99.90
2851;DHT22;1433;49.976;8.342;2023-11-22T11:41:27;7.60;99.90
2851;DHT22;1433;49.976;8.342;2023-11-22T11:43:55;8.00;99.90
2851;DHT22;1433;49.976;8.342;2023-11-22T11:46:22;7.80;99.90
2851;DHT22;1433;49.976;8.342;2023-11-22T11:48:51;7.80;99.90
2851;DHT22;1433;49.976;8.342;2023-11-22T11:51:26;7.50;99.90
2851;DHT22;1433;49.976;8.342;2023-11-22T11:53:54;7.40;99.90
2851;DHT22;1433;49.976;8.342;2023-11-22T11:56:22;7.10;99.90
2851;DHT22;1433;49.976;8.342;2023-11-22T11:58:50;7.00;99.90
2851;DHT22;1433;49.976;8.342;2023-11-22T12:01:17;7.40;99.90
2851;DHT22;1433;49.976;8.342;2023-11-22T12:03:46;7.40;99.90
2851;DHT22;1433;49.976;8.342;2023-11-22T12:06:16;7.10;99.90
2851;DHT22;1433;49.976;8.342;2023-11-22T12:08:43;7.40;99.90
2851;DHT22;1433;49.976;8.342;2023-11-22T12:11:10;7.90;99.90
2851;DHT22;1433;49.976;8.342;2023-11-22T12:13:38;8.30;99.90
2851;DHT22;1433;49.976;8.342;2023-11-22T12:16:06;8.40;99.90
2851;DHT22;1433;49.976;8.342;2023-11-22T12:18:45;8.60;99.90
2851;DHT22;1433;49.976;8.342;2023-11-22T12:21:12;9.00;99.90
2851;DHT22;1433;49.976;8.342;2023-11-22T12:23:42;8.90;99.90
2851;DHT22;1433;49.976;8.342;2023-11-22T12:26:11;8.90;99.90
2851;DHT22;1433;49.976;8.342;2023-11-22T12:28:39;9.10;99.90
2851;DHT22;1433;49.976;8.342;2023-11-22T12:31:10;9.10;99.90
2851;DHT22;1433;49.976;8.342;2023-11-22T12:33:37;8.80;99.90
2851;DHT22;1433;49.976;8.342;2023-11-22T12:36:04;9.00;99.90
2851;DHT22;1433;49.976;8.342;2023-11-22T12:38:30;8.80;99.90
2851;DHT22;1433;49.976;8.342;2023-11-22T12:40:58;8.60;99.90
2851;DHT22;1433;49.976;8.342;2023-11-22T12:43:24;8.60;99.90
2851;DHT22;1433;49.976;8.342;2023-11-22T12:46:05;8.70;99.90
2851;DHT22;1433;49.976;8.342;2023-11-22T12:48:39;9.10;99.90
2851;DHT22;1433;49.976;8.342;2023-11-22T12:51:17;9.20;99.90
2851;DHT22;1433;49.976;8.342;2023-11-22T12:53:47;9.20;99.90
2851;DHT22;1433;49.976;8.342;2023-11-22T12:56:14;9.20;99.90
2851;DHT22;1433;49.976;8.342;2023-11-22T12:58:40;9.40;99.90
2851;DHT22;1433;49.976;8.342;2023-11-22T13:01:06;9.20;99.90
2851;DHT22;1433;49.976;8.342;2023-11-22T13:03:32;9.00;99.90
2851;DHT22;1433;49.976;8.342;2023-11-22T13:05:59;9.30;99.90
2851;DHT22;1433;49.976;8.342;2023-11-22T13:08:25;9.00;99.90
2851;DHT22;1433;49.976;8.342;2023-11-22T13:10:54;9.10;99.90
2851;DHT22;1433;49.976;8.342;2023-11-22T13:13:24;8.90;99.90
2851;DHT22;1433;49.976;8.342;2023-11-22T13:15:51;8.80;99.90
2851;DHT22;1433;49.976;8.342;2023-11-22T13:18:18;8.70;99.90
2851;DHT22;1433;49.976;8.342;2023-11-22T13:20:45;8.90;99.90
2851;DHT22;1433;49.976;8.342;2023-11-22T13:23:11;8.80;99.90
2851;DHT22;1433;49.976;8.342;2023-11-22T13:25:40;8.60;99.90
2851;DHT22;1433;49.976;8.342;2023-11-22T13:28:10;8.40;99.90
2851;DHT22;1433;49.976;8.342;2023-11-22T13:30:36;8.20;99.90
2851;DHT22;1433;49.976;8.342;2023-11-22T13:33:02;7.90;99.90
2851;DHT22;1433;49.976;8.342;2023-11-22T13:35:29;7.40;99.90
2851;DHT22;1433;49.976;8.342;2023-11-22T13:37:58;7.20;99.90
2851;DHT22;1433;49.976;8.342;2023-11-22T13:40:25;7.30;99.90
2851;DHT22;1433;49.976;8.342;2023-11-22T13:42:53;7.20;99.90
2851;DHT22;1433;49.976;8.342;2023-11-22T13:45:20;7.00;99.90
2851;DHT22;1433;49.976;8.342;2023-11-22T13:47:48;7.10;99.90
2851;DHT22;1433;49.976;8.342;2023-11-22T13:50:16;7.00;99.90
2851;DHT22;1433;49.976;8.342;2023-11-22T13:52:51;7.00;99.90
2851;DHT22;1433;49.976;8.342;2023-11-22T13:55:17;6.90;99.90
2851;DHT22;1433;49.976;8.342;2023-11-22T13:57:46;6.90;99.90
2851;DHT22;1433;49.976;8.342;2023-11-22T14:00:12;6.80;99.90
2851;DHT22;1433;49.976;8.342;2023-11-22T14:02:41;6.60;99.90
2851;DHT22;1433;49.976;8.342;2023-11-22T14:05:08;6.60;99.90
2851;DHT22;1433;49.976;8.342;2023-11-22T14:07:37;6.60;99.90
2851;DHT22;1433;49.976;8.342;2023-11-22T14:10:03;6.30;99.90
2851;DHT22;1433;49.976;8.342;2023-11-22T14:12:31;6.10;99.90
2851;DHT22;1433;49.976;8.342;2023-11-22T14:14:58;6.00;99.90
2851;DHT22;1433;49.976;8.342;2023-11-22T14:17:25;5.80;99.90
2851;DHT22;1433;49.976;8.342;2023-11-22T14:19:52;5.70;99.90
2851;DHT22;1433;49.976;8.342;2023-11-22T14:22:19;5.50;99.90
2851;DHT22;1433;49.976;8.342;2023-11-22T14:24:47;5.40;99.90
2851;DHT22;1433;49.976;8.342;2023-11-22T14:27:13;5.40;99.90
2851;DHT22;1433;49.976;8.342;2023-11-22T14:29:39;5.40;99.90
2851;DHT22;1433;49.976;8.342;2023-11-22T14:32:07;5.30;99.90
2851;DHT22;1433;49.976;8.342;2023-11-22T14:34:33;5.30;99.90
2851;DHT22;1433;49.976;8.342;2023-11-22T14:36:59;5.20;99.90
2851;DHT22;1433;49.976;8.342;2023-11-22T14:39:25;5.30;99.90
2851;DHT22;1433;49.976;8.342;2023-11-22T14:41:53;5.30;99.90
2851;DHT22;1433;49.976;8.342;2023-11-22T14:44:21;5.20;99.90
2851;DHT22;1433;49.976;8.342;2023-11-22T14:46:47;5.10;99.90
2851;DHT22;1433;49.976;8.342;2023-11-22T14:49:15;4.90;99.90
2851;DHT22;1433;49.976;8.342;2023-11-22T14:51:41;4.80;99.90
2851;DHT22;1433;49.976;8.342;2023-11-22T14:54:07;4.70;99.90
2851;DHT22;1433;49.976;8.342;2023-11-22T14:56:34;4.60;99.90
2851;DHT22;1433;49.976;8.342;2023-11-22T14:59:00;4.50;99.90
2851;DHT22;1433;49.976;8.342;2023-11-22T15:01:27;4.40;99.90
2851;DHT22;1433;49.976;8.342;2023-11-22T15:03:53;4.30;99.90
2851;DHT22;1433;49.976;8.342;2023-11-22T15:06:22;4.20;99.90
2851;DHT22;1433;49.976;8.342;2023-11-22T15:08:49;4.10;99.90
2851;DHT22;1433;49.976;8.342;2023-11-22T15:11:17;4.00;99.90
2851;DHT22;1433;49.976;8.342;2023-11-22T15:13:44;3.90;99.90
2851;DHT22;1433;49.976;8.342;2023-11-22T15:16:11;3.90;99.90
2851;DHT22;1433;49.976;8.342;2023-11-22T15:18:42;3.80;99.90
2851;DHT22;1433;49.976;8.342;2023-11-22T15:21:09;3.70;99.90
2851;DHT22;1433;49.976;8.342;2023-11-22T15:23:35;3.60;99.90
2851;DHT22;1433;49.976;8.342;2023-11-22T15:26:01;3.60;99.90
2851;DHT22;1433;49.976;8.342;2023-11-22T15:28:27;3.50;99.90
2851;DHT22;1433;49.976;8.342;2023-11-22T15:30:53;3.40;99.90
2851;DHT22;1433;49.976;8.342;2023-11-22T15:33:25;3.30;99.90
2851;DHT22;1433;49.976;8.342;2023-11-22T15:35:51;3.20;99.90
2851;DHT22;1433;49.976;8.342;2023-11-22T15:38:17;3.10;99.90
2851;DHT22;1433;49.976;8.342;2023-11-22T15:40:43;3.10;99.90
2851;DHT22;1433;49.976;8.342;2023-11-22T15:43:09;3.00;99.90
2851;DHT22;1433;49.976;8.342;2023-11-22T15:45:37;2.90;99.90
2851;DHT22;1433;49.976;8.342;2023-11-22T15:48:05;2.90;99.90
2851;DHT22;1433;49.976;8.342;2023-11-22T15:50:31;2.90;99.90
2851;DHT22;1433;49.976;8.342;2023-11-22T15:52:58;2.90;99.90
2851;DHT22;1433;49.976;8.342;2023-11-22T15:55:25;2.90;99.90
2851;DHT22;1433;49.976;8.342;2023-11-22T15:57:52;2.90;99.90
2851;DHT22;1433;49.976;8.342;2023-11-22T16:00:19;2.90;99.90
2851;DHT22;1433;49.976;8.342;2023-11-22T16:02:47;2.90;99.90
2851;DHT22;1433;49.976;8.342;2023-11-22T16:05:13;2.90;99.90
2851;DHT22;1433;49.976;8.342;2023-11-22T16:07:40;2.80;99.90
2851;DHT22;1433;49.976;8.342;2023-11-22T16:10:06;2.80;99.90
2851;DHT22;1433;49.976;8.342;2023-11-22T16:12:34;2.80;99.90
2851;DHT22;1433;49.976;8.342;2023-11-22T16:15:00;2.80;99.90
2851;DHT22;1433;49.976;8.342;2023-11-22T16:17:27;2.80;99.90
2851;DHT22;1433;49.976;8.342;2023-11-22T16:19:53;2.70;99.90